createdAt,value
2018-06-28T00:00:56.883Z,0.00
2018-06-28T00:01:56.888Z,0.00
2018-06-28T00:02:56.888Z,0.00
2018-06-28T00:03:56.894Z,0.00
2018-06-28T00:04:56.901Z,0.00
2018-06-28T00:05:56.898Z,0.00
2018-06-28T00:06:56.900Z,0.00
2018-06-28T00:07:56.903Z,0.00
2018-06-28T00:08:56.988Z,0.00
2018-06-28T00:09:56.908Z,0.00
2018-06-28T00:10:56.910Z,0.00
2018-06-28T00:11:56.913Z,0.00
2018-06-28T00:12:56.929Z,0.00
2018-06-28T00:13:56.918Z,0.00
2018-06-28T00:14:56.924Z,0.00
2018-06-28T00:15:56.924Z,0.00
2018-06-28T00:16:56.925Z,0.00
2018-06-28T00:17:56.929Z,0.00
2018-06-28T00:18:56.932Z,0.00
2018-06-28T00:19:56.935Z,0.00
2018-06-28T00:20:56.937Z,0.00
2018-06-28T00:21:56.942Z,0.00
2018-06-28T00:22:56.942Z,0.00
2018-06-28T00:23:56.944Z,0.00
2018-06-28T00:24:56.944Z,0.00
2018-06-28T00:25:56.947Z,0.00
2018-06-28T00:26:56.953Z,0.00
2018-06-28T00:27:56.954Z,0.00
2018-06-28T00:28:56.955Z,0.00
2018-06-28T00:29:56.957Z,0.00
2018-06-28T00:30:56.961Z,0.00
2018-06-28T00:31:56.963Z,0.00
2018-06-28T00:32:56.968Z,0.00
2018-06-28T00:33:56.968Z,0.00
2018-06-28T00:34:56.968Z,0.00
2018-06-28T00:35:56.974Z,0.00
2018-06-28T00:36:56.973Z,0.00
2018-06-28T00:37:56.978Z,0.00
2018-06-28T00:38:56.980Z,0.00
2018-06-28T00:39:56.981Z,0.00
2018-06-28T00:40:56.984Z,0.00
2018-06-28T00:41:56.987Z,0.00
2018-06-28T00:42:57.027Z,0.00
2018-06-28T00:43:56.991Z,0.00
2018-06-28T00:44:56.990Z,0.00
2018-06-28T00:45:56.992Z,0.00
2018-06-28T00:46:56.989Z,0.00
2018-06-28T00:47:56.998Z,0.00
2018-06-28T00:48:57.000Z,0.00
2018-06-28T00:49:57.001Z,0.00
2018-06-28T00:50:57.006Z,0.00
2018-06-28T00:51:57.001Z,0.00
2018-06-28T00:52:57.006Z,0.00
2018-06-28T00:53:57.011Z,0.00
2018-06-28T00:54:57.013Z,0.00
2018-06-28T00:55:57.016Z,0.00
2018-06-28T00:56:57.015Z,0.00
2018-06-28T00:57:57.019Z,0.00
2018-06-28T00:58:57.024Z,0.00
2018-06-28T00:59:57.024Z,0.00
2018-06-28T01:00:57.028Z,0.00
2018-06-28T01:01:57.027Z,0.00
2018-06-28T01:02:57.031Z,0.00
2018-06-28T01:03:57.036Z,0.00
2018-06-28T01:04:57.029Z,0.00
2018-06-28T01:05:57.042Z,0.00
2018-06-28T01:06:57.038Z,0.00
2018-06-28T01:07:57.038Z,0.00
2018-06-28T01:08:57.040Z,0.00
2018-06-28T01:09:57.041Z,0.00
2018-06-28T01:10:57.046Z,0.00
2018-06-28T01:11:57.051Z,0.00
2018-06-28T01:12:57.048Z,0.00
2018-06-28T01:13:57.045Z,0.00
2018-06-28T01:14:57.052Z,0.00
2018-06-28T01:15:57.054Z,0.00
2018-06-28T01:16:57.057Z,0.00
2018-06-28T01:17:57.056Z,0.00
2018-06-28T01:18:57.059Z,0.00
2018-06-28T01:19:57.061Z,0.00
2018-06-28T01:20:57.059Z,0.00
2018-06-28T01:21:57.065Z,0.00
2018-06-28T01:22:57.072Z,0.00
2018-06-28T01:23:57.069Z,0.00
2018-06-28T01:24:57.072Z,0.00
2018-06-28T01:25:57.073Z,0.00
2018-06-28T01:26:57.073Z,0.00
2018-06-28T01:27:57.076Z,0.00
2018-06-28T01:28:57.077Z,0.00
2018-06-28T01:29:57.079Z,0.00
2018-06-28T01:30:57.080Z,0.00
2018-06-28T01:31:57.083Z,0.00
2018-06-28T01:32:57.083Z,0.00
2018-06-28T01:33:57.078Z,0.00
2018-06-28T01:34:57.085Z,0.00
2018-06-28T01:35:57.095Z,0.00
2018-06-28T01:36:57.091Z,0.00
2018-06-28T01:37:57.094Z,0.00
2018-06-28T01:38:57.095Z,0.00
2018-06-28T01:39:57.099Z,0.00
2018-06-28T01:40:57.097Z,0.00
2018-06-28T01:41:57.092Z,0.00
2018-06-28T01:42:57.101Z,0.00
2018-06-28T01:43:57.099Z,0.00
2018-06-28T01:44:57.105Z,0.00
2018-06-28T01:45:57.113Z,0.00
2018-06-28T01:46:57.103Z,0.00
2018-06-28T01:47:57.123Z,0.00
2018-06-28T01:48:57.111Z,0.00
2018-06-28T01:49:57.107Z,0.00
2018-06-28T01:50:57.114Z,0.00
2018-06-28T01:51:57.115Z,0.00
2018-06-28T01:52:57.161Z,0.00
2018-06-28T01:53:57.119Z,0.00
2018-06-28T01:54:57.118Z,0.00
2018-06-28T01:55:57.120Z,0.00
2018-06-28T01:56:57.130Z,0.00
2018-06-28T01:57:57.128Z,0.00
2018-06-28T01:58:57.130Z,0.00
2018-06-28T01:59:57.130Z,0.00
2018-06-28T02:00:57.133Z,0.00
2018-06-28T02:01:57.135Z,0.00
2018-06-28T02:02:57.142Z,0.00
2018-06-28T02:03:57.138Z,0.00
2018-06-28T02:04:57.139Z,0.00
2018-06-28T02:05:57.141Z,0.00
2018-06-28T02:06:57.142Z,0.00
2018-06-28T02:07:57.145Z,0.00
2018-06-28T02:08:57.144Z,0.00
2018-06-28T02:09:57.151Z,0.00
2018-06-28T02:10:57.150Z,0.00
2018-06-28T02:11:57.147Z,0.00
2018-06-28T02:12:57.151Z,0.00
2018-06-28T02:13:57.146Z,0.00
2018-06-28T02:14:57.151Z,0.00
2018-06-28T02:15:57.156Z,4.00
2018-06-28T02:16:57.158Z,4.00
2018-06-28T02:17:57.158Z,4.00
2018-06-28T02:18:57.159Z,4.00
2018-06-28T02:19:57.174Z,0.00
2018-06-28T02:20:57.164Z,4.00
2018-06-28T02:21:57.165Z,4.00
2018-06-28T02:22:57.160Z,4.00
2018-06-28T02:23:57.167Z,8.00
2018-06-28T02:24:57.163Z,4.00
2018-06-28T02:25:57.170Z,8.00
2018-06-28T02:26:57.173Z,8.00
2018-06-28T02:27:57.174Z,8.00
2018-06-28T02:28:57.175Z,12.00
2018-06-28T02:29:57.178Z,12.00
2018-06-28T02:30:57.177Z,12.00
2018-06-28T02:31:57.179Z,16.00
2018-06-28T02:32:57.179Z,12.00
2018-06-28T02:33:57.182Z,16.00
2018-06-28T02:34:57.191Z,20.00
2018-06-28T02:35:57.181Z,20.00
2018-06-28T02:36:57.187Z,24.00
2018-06-28T02:37:57.188Z,28.00
2018-06-28T02:38:57.187Z,28.00
2018-06-28T02:39:57.190Z,32.00
2018-06-28T02:40:57.191Z,36.00
2018-06-28T02:41:57.191Z,40.00
2018-06-28T02:42:57.201Z,44.00
2018-06-28T02:43:57.194Z,48.00
2018-06-28T02:44:57.197Z,52.00
2018-06-28T02:45:57.197Z,56.00
2018-06-28T02:46:57.196Z,64.00
2018-06-28T02:47:57.198Z,68.00
2018-06-28T02:48:57.201Z,76.00
2018-06-28T02:49:57.201Z,80.00
2018-06-28T02:50:57.201Z,88.00
2018-06-28T02:51:57.200Z,92.00
2018-06-28T02:52:57.204Z,96.00
2018-06-28T02:53:57.209Z,104.00
2018-06-28T02:54:57.207Z,112.00
2018-06-28T02:55:57.208Z,120.00
2018-06-28T02:56:57.208Z,128.00
2018-06-28T02:57:57.211Z,136.00
2018-06-28T02:58:57.211Z,148.00
2018-06-28T02:59:57.213Z,156.00
2018-06-28T03:00:57.207Z,164.00
2018-06-28T03:01:57.213Z,172.00
2018-06-28T03:02:57.217Z,184.00
2018-06-28T03:03:57.218Z,196.00
2018-06-28T03:04:57.216Z,204.00
2018-06-28T03:05:57.219Z,220.00
2018-06-28T03:06:57.230Z,232.00
2018-06-28T03:07:57.222Z,244.00
2018-06-28T03:08:57.220Z,260.00
2018-06-28T03:09:57.224Z,276.00
2018-06-28T03:10:57.223Z,296.00
2018-06-28T03:11:57.226Z,312.00
2018-06-28T03:12:57.225Z,336.00
2018-06-28T03:13:57.223Z,364.00
2018-06-28T03:14:57.236Z,388.00
2018-06-28T03:15:57.229Z,412.00
2018-06-28T03:16:57.243Z,432.00
2018-06-28T03:17:57.230Z,452.00
2018-06-28T03:18:57.231Z,468.00
2018-06-28T03:19:57.235Z,484.00
2018-06-28T03:20:57.232Z,504.00
2018-06-28T03:21:57.236Z,520.00
2018-06-28T03:22:57.235Z,532.00
2018-06-28T03:23:57.237Z,548.00
2018-06-28T03:24:57.237Z,560.00
2018-06-28T03:25:57.237Z,576.00
2018-06-28T03:26:57.238Z,596.00
2018-06-28T03:27:57.242Z,620.00
2018-06-28T03:28:57.241Z,644.00
2018-06-28T03:29:57.242Z,664.00
2018-06-28T03:30:57.257Z,688.00
2018-06-28T03:31:57.248Z,708.00
2018-06-28T03:32:57.245Z,724.00
2018-06-28T03:33:57.254Z,748.00
2018-06-28T03:34:57.241Z,768.00
2018-06-28T03:35:57.252Z,800.00
2018-06-28T03:36:57.242Z,840.00
2018-06-28T03:37:57.408Z,880.00
2018-06-28T03:38:57.247Z,912.00
2018-06-28T03:39:57.251Z,944.00
2018-06-28T03:40:57.255Z,972.00
2018-06-28T03:41:57.255Z,1008.00
2018-06-28T03:42:57.256Z,1052.00
2018-06-28T03:43:57.256Z,1096.00
2018-06-28T03:44:57.259Z,1140.00
2018-06-28T03:45:57.279Z,1176.00
2018-06-28T03:46:57.259Z,1216.00
2018-06-28T03:47:57.262Z,1252.00
2018-06-28T03:48:57.263Z,1284.00
2018-06-28T03:49:57.264Z,1316.00
2018-06-28T03:50:57.264Z,1352.00
2018-06-28T03:51:57.267Z,1388.00
2018-06-28T03:52:57.264Z,1432.00
2018-06-28T03:53:57.266Z,1484.00
2018-06-28T03:54:57.265Z,1576.00
2018-06-28T03:55:57.267Z,1672.00
2018-06-28T03:56:57.262Z,1712.00
2018-06-28T03:57:57.272Z,1732.00
2018-06-28T03:58:57.270Z,1744.00
2018-06-28T03:59:57.273Z,1760.00
2018-06-28T04:00:57.272Z,1796.00
2018-06-28T04:01:57.275Z,1832.00
2018-06-28T04:02:57.278Z,1916.00
2018-06-28T04:03:57.279Z,1992.00
2018-06-28T04:04:57.278Z,2048.00
2018-06-28T04:05:57.281Z,2092.00
2018-06-28T04:06:57.280Z,2136.00
2018-06-28T04:07:57.284Z,2196.00
2018-06-28T04:08:57.286Z,2256.00
2018-06-28T04:09:57.285Z,2304.00
2018-06-28T04:10:57.284Z,2368.00
2018-06-28T04:11:57.287Z,2372.00
2018-06-28T04:12:57.286Z,2400.00
2018-06-28T04:13:57.289Z,2416.00
2018-06-28T04:14:57.289Z,2444.00
2018-06-28T04:15:57.289Z,2460.00
2018-06-28T04:16:57.291Z,2480.00
2018-06-28T04:17:57.288Z,2508.00
2018-06-28T04:18:57.294Z,2536.00
2018-06-28T04:19:57.295Z,2560.00
2018-06-28T04:20:57.294Z,2520.00
2018-06-28T04:21:57.297Z,2436.00
2018-06-28T04:22:57.299Z,2416.00
2018-06-28T04:23:57.294Z,2432.00
2018-06-28T04:24:57.301Z,2404.00
2018-06-28T04:25:57.301Z,2420.00
2018-06-28T04:26:57.299Z,2472.00
2018-06-28T04:27:57.300Z,2476.00
2018-06-28T04:28:57.308Z,2508.00
2018-06-28T04:29:57.312Z,2528.00
2018-06-28T04:30:57.312Z,2520.00
2018-06-28T04:31:57.307Z,2540.00
2018-06-28T04:32:57.315Z,2596.00
2018-06-28T04:33:57.308Z,2656.00
2018-06-28T04:34:57.315Z,2684.00
2018-06-28T04:35:57.317Z,2724.00
2018-06-28T04:36:57.322Z,2752.00
2018-06-28T04:37:57.319Z,2768.00
2018-06-28T04:38:57.322Z,2804.00
2018-06-28T04:39:57.325Z,2852.00
2018-06-28T04:40:57.350Z,2916.00
2018-06-28T04:41:57.328Z,2984.00
2018-06-28T04:42:57.331Z,3084.00
2018-06-28T04:43:57.330Z,3200.00
2018-06-28T04:44:57.330Z,3308.00
2018-06-28T04:45:57.330Z,3408.00
2018-06-28T04:46:57.342Z,3468.00
2018-06-28T04:47:57.339Z,3480.00
2018-06-28T04:48:57.334Z,3436.00
2018-06-28T04:49:57.483Z,3340.00
2018-06-28T04:50:57.340Z,3240.00
2018-06-28T04:51:57.355Z,3148.00
2018-06-28T04:52:57.345Z,3088.00
2018-06-28T04:53:57.346Z,3068.00
2018-06-28T04:54:57.348Z,3092.00
2018-06-28T04:55:57.351Z,3176.00
2018-06-28T04:56:57.351Z,3292.00
2018-06-28T04:57:57.353Z,3392.00
2018-06-28T04:58:57.357Z,3468.00
2018-06-28T04:59:57.355Z,3460.00
2018-06-28T05:00:57.360Z,3368.00
2018-06-28T05:01:57.362Z,3232.00
2018-06-28T05:02:57.366Z,3100.00
2018-06-28T05:03:57.373Z,3048.00
2018-06-28T05:04:57.365Z,3056.00
2018-06-28T05:05:57.367Z,3112.00
2018-06-28T05:06:57.431Z,3224.00
2018-06-28T05:07:57.371Z,3384.00
2018-06-28T05:08:57.385Z,3556.00
2018-06-28T05:09:57.381Z,3756.00
2018-06-28T05:10:57.380Z,3924.00
2018-06-28T05:11:57.383Z,4124.00
2018-06-28T05:12:57.382Z,4380.00
2018-06-28T05:13:57.384Z,4516.00
2018-06-28T05:14:57.395Z,4704.00
2018-06-28T05:15:57.389Z,4892.00
2018-06-28T05:16:57.390Z,5096.00
2018-06-28T05:17:57.391Z,5284.00
2018-06-28T05:18:57.394Z,5492.00
2018-06-28T05:19:57.398Z,5704.00
2018-06-28T05:20:57.426Z,5872.00
2018-06-28T05:21:57.402Z,6032.00
2018-06-28T05:22:57.404Z,6168.00
2018-06-28T05:23:57.408Z,6288.00
2018-06-28T05:24:57.408Z,6360.00
2018-06-28T05:25:57.413Z,6436.00
2018-06-28T05:26:57.416Z,6480.00
2018-06-28T05:27:57.418Z,6420.00
2018-06-28T05:28:57.420Z,6284.00
2018-06-28T05:29:57.422Z,6076.00
2018-06-28T05:30:57.429Z,5840.00
2018-06-28T05:31:57.432Z,5620.00
2018-06-28T05:32:57.429Z,5404.00
2018-06-28T05:33:57.427Z,5240.00
2018-06-28T05:34:57.508Z,5148.00
2018-06-28T05:35:57.443Z,5104.00
2018-06-28T05:36:57.442Z,5108.00
2018-06-28T05:37:57.449Z,5140.00
2018-06-28T05:38:57.457Z,5124.00
2018-06-28T05:39:57.455Z,5084.00
2018-06-28T05:40:57.455Z,5060.00
2018-06-28T05:41:57.453Z,5056.00
2018-06-28T05:42:57.464Z,5056.00
2018-06-28T05:43:57.465Z,5000.00
2018-06-28T05:44:57.470Z,5100.00
2018-06-28T05:45:57.471Z,5048.00
2018-06-28T05:46:57.480Z,4952.00
2018-06-28T05:47:57.478Z,4896.00
2018-06-28T05:48:57.480Z,4888.00
2018-06-28T05:49:57.484Z,5004.00
2018-06-28T05:50:57.483Z,5092.00
2018-06-28T05:51:57.492Z,5028.00
2018-06-28T05:52:57.494Z,5032.00
2018-06-28T05:53:57.503Z,5064.00
2018-06-28T05:54:57.502Z,4944.00
2018-06-28T05:55:57.506Z,4944.00
2018-06-28T05:56:57.509Z,4888.00
2018-06-28T05:57:57.512Z,4916.00
2018-06-28T05:58:57.516Z,4920.00
2018-06-28T05:59:57.519Z,5012.00
2018-06-28T06:00:57.524Z,4968.00
2018-06-28T06:01:57.525Z,5000.00
2018-06-28T06:02:57.530Z,5060.00
2018-06-28T06:03:57.536Z,5076.00
2018-06-28T06:04:57.536Z,5100.00
2018-06-28T06:05:57.568Z,5128.00
2018-06-28T06:06:57.542Z,5124.00
2018-06-28T06:07:57.550Z,5152.00
2018-06-28T06:08:57.549Z,5152.00
2018-06-28T06:09:57.555Z,5116.00
2018-06-28T06:10:57.550Z,5100.00
2018-06-28T06:11:57.567Z,5100.00
2018-06-28T06:12:57.571Z,5084.00
2018-06-28T06:13:57.563Z,5040.00
2018-06-28T06:14:57.570Z,4976.00
2018-06-28T06:15:57.578Z,4908.00
2018-06-28T06:16:57.583Z,4836.00
2018-06-28T06:17:57.582Z,4676.00
2018-06-28T06:18:57.589Z,4536.00
2018-06-28T06:19:57.590Z,4388.00
2018-06-28T06:20:57.593Z,4432.00
2018-06-28T06:21:57.601Z,4284.00
2018-06-28T06:22:57.600Z,4128.00
2018-06-28T06:23:57.609Z,4132.00
2018-06-28T06:24:57.610Z,4124.00
2018-06-28T06:25:57.613Z,4108.00
2018-06-28T06:26:57.617Z,4084.00
2018-06-28T06:27:57.620Z,4116.00
2018-06-28T06:28:57.624Z,4188.00
2018-06-28T06:29:57.628Z,4196.00
2018-06-28T06:30:57.632Z,4112.00
2018-06-28T06:31:57.636Z,4160.00
2018-06-28T06:32:57.687Z,4040.00
2018-06-28T06:33:57.646Z,4244.00
2018-06-28T06:34:57.646Z,4260.00
2018-06-28T06:35:57.653Z,4528.00
2018-06-28T06:36:57.653Z,4836.00
2018-06-28T06:37:57.656Z,5152.00
2018-06-28T06:38:57.663Z,5428.00
2018-06-28T06:39:57.673Z,5652.00
2018-06-28T06:40:57.669Z,5860.00
2018-06-28T06:41:57.671Z,6052.00
2018-06-28T06:42:57.679Z,6272.00
2018-06-28T06:43:57.680Z,6320.00
2018-06-28T06:44:57.683Z,6328.00
2018-06-28T06:45:57.688Z,6176.00
2018-06-28T06:46:57.687Z,6492.00
2018-06-28T06:47:57.697Z,6668.00
2018-06-28T06:48:57.701Z,6772.00
2018-06-28T06:49:57.707Z,6776.00
2018-06-28T06:50:57.708Z,6716.00
2018-06-28T06:51:57.712Z,6672.00
2018-06-28T06:52:57.714Z,6660.00
2018-06-28T06:53:57.719Z,6472.00
2018-06-28T06:54:57.715Z,6236.00
2018-06-28T06:55:57.727Z,6072.00
2018-06-28T06:56:57.732Z,5900.00
2018-06-28T06:57:57.735Z,5732.00
2018-06-28T06:58:57.740Z,5580.00
2018-06-28T06:59:57.744Z,5456.00
2018-06-28T07:00:57.747Z,5440.00
2018-06-28T07:01:57.749Z,5364.00
2018-06-28T07:02:57.758Z,5308.00
2018-06-28T07:03:57.762Z,5356.00
2018-06-28T07:04:57.760Z,5364.00
2018-06-28T07:05:57.766Z,5380.00
2018-06-28T07:06:57.772Z,5328.00
2018-06-28T07:07:57.780Z,5208.00
2018-06-28T07:08:57.787Z,5104.00
2018-06-28T07:09:57.782Z,5044.00
2018-06-28T07:10:57.790Z,5008.00
2018-06-28T07:11:57.791Z,4988.00
2018-06-28T07:12:57.796Z,4992.00
2018-06-28T07:13:57.803Z,4976.00
2018-06-28T07:14:57.805Z,4996.00
2018-06-28T07:15:57.813Z,5020.00
2018-06-28T07:16:57.817Z,4996.00
2018-06-28T07:17:57.819Z,4972.00
2018-06-28T07:18:57.829Z,4584.00
2018-06-28T07:19:57.832Z,4984.00
2018-06-28T07:20:57.833Z,5096.00
2018-06-28T07:21:57.837Z,5224.00
2018-06-28T07:22:57.894Z,5176.00
2018-06-28T07:23:57.848Z,5080.00
2018-06-28T07:24:57.854Z,5056.00
2018-06-28T07:25:57.858Z,5056.00
2018-06-28T07:26:57.860Z,5040.00
2018-06-28T07:27:57.867Z,4948.00
2018-06-28T07:28:57.873Z,4788.00
2018-06-28T07:29:57.881Z,4680.00
2018-06-28T07:30:57.886Z,4500.00
2018-06-28T07:31:57.894Z,4672.00
2018-06-28T07:32:57.902Z,4732.00
2018-06-28T07:33:57.909Z,4864.00
2018-06-28T07:34:57.900Z,4992.00
2018-06-28T07:35:57.934Z,5016.00
2018-06-28T07:36:57.908Z,5064.00
2018-06-28T07:37:57.925Z,5144.00
2018-06-28T07:38:57.924Z,5084.00
2018-06-28T07:39:57.925Z,5076.00
2018-06-28T07:40:57.933Z,5188.00
2018-06-28T07:41:57.939Z,5212.00
2018-06-28T07:42:57.945Z,5172.00
2018-06-28T07:43:57.949Z,5196.00
2018-06-28T07:44:57.962Z,5208.00
2018-06-28T07:45:57.959Z,5200.00
2018-06-28T07:46:58.030Z,5180.00
2018-06-28T07:47:57.975Z,5132.00
2018-06-28T07:48:57.987Z,5180.00
2018-06-28T07:49:57.979Z,5216.00
2018-06-28T07:50:57.985Z,5244.00
2018-06-28T07:51:57.992Z,5356.00
2018-06-28T07:52:57.997Z,5452.00
2018-06-28T07:53:58.002Z,5564.00
2018-06-28T07:54:58.006Z,5644.00
2018-06-28T07:55:58.013Z,5748.00
2018-06-28T07:56:58.015Z,5868.00
2018-06-28T07:57:58.025Z,6116.00
2018-06-28T07:58:58.023Z,6316.00
2018-06-28T07:59:58.035Z,6516.00
2018-06-28T08:00:58.032Z,6632.00
2018-06-28T08:01:58.041Z,6736.00
2018-06-28T08:02:58.043Z,6808.00
2018-06-28T08:03:58.055Z,6852.00
2018-06-28T08:04:58.055Z,6904.00
2018-06-28T08:05:58.062Z,7012.00
2018-06-28T08:06:58.072Z,7156.00
2018-06-28T08:07:58.076Z,7400.00
2018-06-28T08:08:58.077Z,7680.00
2018-06-28T08:09:58.088Z,7972.00
2018-06-28T08:10:58.091Z,8224.00
2018-06-28T08:11:58.093Z,8172.00
2018-06-28T08:12:58.102Z,8028.00
2018-06-28T08:13:58.104Z,7756.00
2018-06-28T08:14:58.111Z,7580.00
2018-06-28T08:15:58.118Z,7424.00
2018-06-28T08:16:58.120Z,7348.00
2018-06-28T08:17:58.129Z,7408.00
2018-06-28T08:18:58.132Z,7408.00
2018-06-28T08:19:58.138Z,7408.00
2018-06-28T08:20:58.143Z,7476.00
2018-06-28T08:21:58.149Z,7588.00
2018-06-28T08:22:58.158Z,7668.00
2018-06-28T08:23:58.161Z,8044.00
2018-06-28T08:24:58.165Z,8284.00
2018-06-28T08:25:58.174Z,8476.00
2018-06-28T08:26:58.187Z,8592.00
2018-06-28T08:27:58.184Z,8700.00
2018-06-28T08:28:58.193Z,8852.00
2018-06-28T08:29:58.203Z,9080.00
2018-06-28T08:30:58.198Z,9292.00
2018-06-28T08:31:58.200Z,9476.00
2018-06-28T08:32:58.213Z,9720.00
2018-06-28T08:33:58.213Z,9872.00
2018-06-28T08:34:58.219Z,10032.00
2018-06-28T08:35:58.335Z,10244.00
2018-06-28T08:36:58.237Z,10552.00
2018-06-28T08:37:58.237Z,10860.00
2018-06-28T08:38:58.252Z,11084.00
2018-06-28T08:39:58.253Z,11320.00
2018-06-28T08:40:58.263Z,11436.00
2018-06-28T08:41:58.265Z,11608.00
2018-06-28T08:42:58.273Z,11708.00
2018-06-28T08:43:58.274Z,11792.00
2018-06-28T08:44:58.279Z,11808.00
2018-06-28T08:45:58.288Z,11872.00
2018-06-28T08:46:58.300Z,11968.00
2018-06-28T08:47:58.301Z,12152.00
2018-06-28T08:48:58.370Z,12260.00
2018-06-28T08:49:58.313Z,12392.00
2018-06-28T08:50:58.317Z,12648.00
2018-06-28T08:51:58.327Z,13024.00
2018-06-28T08:52:58.337Z,13088.00
2018-06-28T08:53:58.347Z,13140.00
2018-06-28T08:54:58.341Z,13388.00
2018-06-28T08:55:58.349Z,13364.00
2018-06-28T08:56:58.361Z,13404.00
2018-06-28T08:57:58.423Z,13480.00
2018-06-28T08:58:58.374Z,13904.00
2018-06-28T08:59:58.375Z,13700.00
2018-06-28T09:00:58.386Z,13508.00
2018-06-28T09:01:58.395Z,13372.00
2018-06-28T09:02:58.400Z,13212.00
2018-06-28T09:03:58.405Z,13216.00
2018-06-28T09:04:58.416Z,13256.00
2018-06-28T09:05:58.424Z,12996.00
2018-06-28T09:06:58.427Z,12776.00
2018-06-28T09:07:58.440Z,12724.00
2018-06-28T09:08:58.440Z,12592.00
2018-06-28T09:09:58.447Z,12692.00
2018-06-28T09:10:58.459Z,12680.00
2018-06-28T09:11:58.466Z,12660.00
2018-06-28T09:12:58.471Z,12768.00
2018-06-28T09:13:58.478Z,12860.00
2018-06-28T09:14:58.487Z,12868.00
2018-06-28T09:15:58.490Z,12776.00
2018-06-28T09:16:58.503Z,12628.00
2018-06-28T09:17:58.506Z,12264.00
2018-06-28T09:18:58.511Z,11996.00
2018-06-28T09:19:58.516Z,11700.00
2018-06-28T09:20:58.529Z,11536.00
2018-06-28T09:21:58.537Z,11620.00
2018-06-28T09:22:58.555Z,11576.00
2018-06-28T09:23:58.547Z,11448.00
2018-06-28T09:24:58.558Z,11524.00
2018-06-28T09:25:58.565Z,11512.00
2018-06-28T09:26:58.571Z,11396.00
2018-06-28T09:27:58.580Z,11356.00
2018-06-28T09:28:58.589Z,11360.00
2018-06-28T09:29:58.596Z,11932.00
2018-06-28T09:30:58.600Z,12380.00
2018-06-28T09:31:58.610Z,12512.00
2018-06-28T09:32:58.612Z,12508.00
2018-06-28T09:33:58.621Z,12292.00
2018-06-28T09:34:58.627Z,11664.00
2018-06-28T09:35:58.639Z,10612.00
2018-06-28T09:36:58.645Z,9804.00
2018-06-28T09:37:58.650Z,10460.00
2018-06-28T09:38:58.658Z,10596.00
2018-06-28T09:39:58.667Z,9900.00
2018-06-28T09:40:58.670Z,9568.00
2018-06-28T09:41:58.678Z,9040.00
2018-06-28T09:42:58.690Z,9440.00
2018-06-28T09:43:58.697Z,9968.00
2018-06-28T09:44:58.698Z,9544.00
2018-06-28T09:45:58.708Z,9708.00
2018-06-28T09:46:58.719Z,10472.00
2018-06-28T09:47:58.768Z,11092.00
2018-06-28T09:48:58.726Z,11564.00
2018-06-28T09:49:58.741Z,12916.00
2018-06-28T09:50:58.749Z,13512.00
2018-06-28T09:51:58.755Z,13644.00
2018-06-28T09:52:58.761Z,13376.00
2018-06-28T09:53:58.769Z,12076.00
2018-06-28T09:54:58.779Z,11984.00
2018-06-28T09:55:58.797Z,12016.00
2018-06-28T09:56:58.793Z,13724.00
2018-06-28T09:57:58.798Z,13972.00
2018-06-28T09:58:58.809Z,13044.00
2018-06-28T09:59:58.818Z,11672.00
2018-06-28T10:00:58.821Z,11048.00
2018-06-28T10:01:58.826Z,10896.00
2018-06-28T10:02:58.838Z,10588.00
2018-06-28T10:03:58.846Z,10008.00
2018-06-28T10:04:58.910Z,10332.00
2018-06-28T10:05:58.861Z,9912.00
2018-06-28T10:06:58.956Z,11056.00
2018-06-28T10:07:58.876Z,12612.00
2018-06-28T10:08:58.884Z,13244.00
2018-06-28T10:09:58.891Z,13364.00
2018-06-28T10:10:58.900Z,12068.00
2018-06-28T10:11:58.910Z,11868.00
2018-06-28T10:12:58.915Z,11844.00
2018-06-28T10:13:58.918Z,11424.00
2018-06-28T10:14:58.928Z,9968.00
2018-06-28T10:15:58.935Z,11760.00
2018-06-28T10:16:58.941Z,12712.00
2018-06-28T10:17:58.973Z,11912.00
2018-06-28T10:18:58.963Z,10624.00
2018-06-28T10:19:58.972Z,10312.00
2018-06-28T10:20:58.979Z,10736.00
2018-06-28T10:21:58.986Z,10656.00
2018-06-28T10:22:58.996Z,9984.00
2018-06-28T10:23:59.000Z,9892.00
2018-06-28T10:24:59.076Z,9820.00
2018-06-28T10:25:59.014Z,10144.00
2018-06-28T10:26:59.031Z,10584.00
2018-06-28T10:27:59.041Z,10972.00
2018-06-28T10:28:59.040Z,13508.00
2018-06-28T10:29:59.052Z,15368.00
2018-06-28T10:30:59.059Z,15360.00
2018-06-28T10:31:59.060Z,15744.00
2018-06-28T10:32:59.077Z,15416.00
2018-06-28T10:33:59.084Z,15708.00
2018-06-28T10:34:59.089Z,15836.00
2018-06-28T10:35:59.099Z,14836.00
2018-06-28T10:36:59.106Z,15248.00
2018-06-28T10:37:59.115Z,15500.00
2018-06-28T10:38:59.123Z,15816.00
2018-06-28T10:39:59.132Z,16704.00
2018-06-28T10:40:59.163Z,16896.00
2018-06-28T10:41:59.148Z,17632.00
2018-06-28T10:42:59.156Z,17440.00
2018-06-28T10:43:59.164Z,17504.00
2018-06-28T10:44:59.175Z,17056.00
2018-06-28T10:45:59.182Z,15968.00
2018-06-28T10:46:59.191Z,15656.00
2018-06-28T10:47:59.212Z,16576.00
2018-06-28T10:48:59.206Z,16960.00
2018-06-28T10:49:59.216Z,17184.00
2018-06-28T10:50:59.224Z,17152.00
2018-06-28T10:51:59.234Z,17024.00
2018-06-28T10:52:59.235Z,16992.00
2018-06-28T10:53:59.255Z,16992.00
2018-06-28T10:54:59.258Z,16608.00
2018-06-28T10:55:59.267Z,16192.00
2018-06-28T10:56:59.278Z,15476.00
2018-06-28T10:57:59.286Z,14764.00
2018-06-28T10:58:59.291Z,14256.00
2018-06-28T10:59:59.306Z,13996.00
2018-06-28T11:00:59.310Z,13604.00
2018-06-28T11:01:59.325Z,13332.00
2018-06-28T11:02:59.329Z,12720.00
2018-06-28T11:03:59.332Z,12048.00
2018-06-28T11:04:59.339Z,11952.00
2018-06-28T11:05:59.355Z,11908.00
2018-06-28T11:06:59.364Z,11656.00
2018-06-28T11:07:59.373Z,11864.00
2018-06-28T11:08:59.376Z,12500.00
2018-06-28T11:09:59.388Z,12176.00
2018-06-28T11:10:59.399Z,11360.00
2018-06-28T11:11:59.409Z,10652.00
2018-06-28T11:12:59.416Z,9164.00
2018-06-28T11:13:59.426Z,8752.00
2018-06-28T11:14:59.435Z,9244.00
2018-06-28T11:15:59.452Z,9312.00
2018-06-28T11:16:59.451Z,9224.00
2018-06-28T11:17:59.460Z,9232.00
2018-06-28T11:18:59.468Z,9436.00
2018-06-28T11:19:59.479Z,9540.00
2018-06-28T11:20:59.488Z,9380.00
2018-06-28T11:21:59.495Z,9460.00
2018-06-28T11:22:59.502Z,9192.00
2018-06-28T11:23:59.510Z,8252.00
2018-06-28T11:24:59.521Z,6396.00
2018-06-28T11:25:59.532Z,5724.00
2018-06-28T11:26:59.531Z,6608.00
2018-06-28T11:27:59.549Z,7500.00
2018-06-28T11:28:59.553Z,7296.00
2018-06-28T11:29:59.566Z,6552.00
2018-06-28T11:30:59.572Z,6244.00
2018-06-28T11:31:59.581Z,6572.00
2018-06-28T11:32:59.589Z,7612.00
2018-06-28T11:33:59.612Z,8572.00
2018-06-28T11:34:59.604Z,8360.00
2018-06-28T11:35:59.611Z,7616.00
2018-06-28T11:36:59.685Z,6744.00
2018-06-28T11:37:59.628Z,5900.00
2018-06-28T11:38:59.635Z,5204.00
2018-06-28T11:39:59.645Z,4696.00
2018-06-28T11:40:59.651Z,4300.00
2018-06-28T11:41:59.674Z,3992.00
2018-06-28T11:42:59.666Z,3848.00
2018-06-28T11:43:59.673Z,3920.00
2018-06-28T11:44:59.681Z,4468.00
2018-06-28T11:45:59.690Z,5192.00
2018-06-28T11:46:59.704Z,5864.00
2018-06-28T11:47:59.708Z,6340.00
2018-06-28T11:48:59.713Z,6560.00
2018-06-28T11:49:59.720Z,6600.00
2018-06-28T11:50:59.724Z,6496.00
2018-06-28T11:51:59.737Z,6392.00
2018-06-28T11:52:59.745Z,6564.00
2018-06-28T11:53:59.749Z,6856.00
2018-06-28T11:54:59.757Z,7140.00
2018-06-28T11:55:59.776Z,7048.00
2018-06-28T11:56:59.766Z,6424.00
2018-06-28T11:57:59.780Z,5540.00
2018-06-28T11:58:59.787Z,4884.00
2018-06-28T11:59:59.794Z,4436.00
2018-06-28T12:00:59.802Z,4256.00
2018-06-28T12:01:59.809Z,4288.00
2018-06-28T12:02:59.817Z,4404.00
2018-06-28T12:03:59.821Z,4508.00
2018-06-28T12:04:59.828Z,4616.00
2018-06-28T12:05:59.834Z,4784.00
2018-06-28T12:06:59.845Z,5028.00
2018-06-28T12:07:59.852Z,5080.00
2018-06-28T12:08:59.857Z,4956.00
2018-06-28T12:09:59.865Z,4736.00
2018-06-28T12:10:59.871Z,4636.00
2018-06-28T12:11:59.876Z,4632.00
2018-06-28T12:12:59.887Z,4704.00
2018-06-28T12:13:59.891Z,4800.00
2018-06-28T12:14:59.901Z,4864.00
2018-06-28T12:15:59.910Z,4848.00
2018-06-28T12:16:59.911Z,4892.00
2018-06-28T12:17:59.920Z,4980.00